Airfield :
LOGIN :

Register | Disclaimer

   EN    FR    IT 

 










Legend :    VFR   Marginal VFR   IFR   Intensive IFR   Very Intensive IFR
Visi :
Ceiling :
>= 8 km
>= 3000ft
5 to 8 km
1000 to 3000 ft
1500m to 5 km
500 to 1000 ft
800 to 1500m
200 to 500 ft
< 800m
< 200 ft
Symbols :   Thunderstorms  Fog  Heavy snow  Heavy precipitations  Wind > 20 kt
SIGMETs :     Misc.  Thunderstorms  Icing  Turbulence  Mountain Waves  Volcanic Ashes






- Airport Elevation : 286 ft
- IATA code : FFD


EGVA - RAF Fairford

CURRENT METAR :
  • 241516Z AUTO 25023G37KT 9999 -RA BKN013 OVC018 11/10 A2962 RMK AO2 RAE04DZB11E12RAB12 SLP035 $

EXPIRED METARs :
  • 241511Z AUTO 25028G33KT 9999 -DZ OVC015 11/10 A2962 RMK AO2 RAE04DZB11 SLP035 $
  • 241450Z AUTO 25028G34KT 9999 -DZ M 11/10 A2963 RMK AO2 RAE1358DZB1358E03DZB50 SLP039 $
  • 241403Z AUTO 24022G30KT 9999 OVC012 11/11 A2963 RMK AO2 RAE1358DZB1358E03 CIG 008V012 SLP039 $
  • 241356Z AUTO 25022G31KT 9999 -RA BKN010 OVC018 11/11 A2963 RMK AO2 PK WND 24034/55 RAE28DZB28E32RAB32 CIG 008V010 SLP039 P0002 T01100110 $
  • 241321Z AUTO 24017G24KT 9999 -RA BKN009 OVC012 11/11 A2964 RMK AO2 CIG 007V009 SLP042 $
  • 241316Z AUTO 23017G26KT 9999 -RA BKN007 OVC012 11/11 A2964 RMK AO2 CIG 007V009 PRESFR SLP042 $
  • 241301Z AUTO 24017G24KT 9999 -RA BKN009 OVC014 11/11 A2966 RMK AO2 SLP048 $
  • 241242Z AUTO 23021G29KT 9999 -RA FEW006 BKN010 OVC015 11/11 A2965 RMK AO2 BKN V OVC SLP045 $

Expired Forecast.



MET'MAP, your aeronautical weather chart ! - Copyright ORBIFLY December 2007 - Disclaimer

ORBIFLY MET'MAP TEAM :

Programming & Development : Alexandra Zaïnal
Concept & original design : Baudouin d'Aumeries
Assistance for programming : Marc-Olivier Méhu
Technical & hardware support : Manuel Goepfert

Contact : metmap@orbifly.com




SOURCES & CREDITS :

   NOAA